createdAt,value
2022-08-12T00:02:03.271Z,4.60
2022-08-12T00:05:27.765Z,4.10
2022-08-12T00:08:51.156Z,3.60
2022-08-12T00:12:14.880Z,4.18
2022-08-12T00:15:36.087Z,3.90
2022-08-12T00:18:57.689Z,4.07
2022-08-12T00:22:20.033Z,3.42
2022-08-12T00:26:01.348Z,5.07
2022-08-12T00:29:22.321Z,3.67
2022-08-12T00:32:54.749Z,4.60
2022-08-12T00:36:34.986Z,4.22
2022-08-12T00:39:58.674Z,3.53
2022-08-12T00:43:00.857Z,3.60
2022-08-12T00:46:21.534Z,3.83
2022-08-12T00:49:25.255Z,3.58
2022-08-12T00:52:27.518Z,4.50
2022-08-12T00:55:29.879Z,3.97
2022-08-12T00:58:34.817Z,3.97
2022-08-12T01:02:02.283Z,3.75
2022-08-12T01:05:25.048Z,3.67
2022-08-12T01:08:46.011Z,3.90
2022-08-12T01:11:50.063Z,3.85
2022-08-12T01:14:54.623Z,4.40
2022-08-12T01:17:56.948Z,4.28
2022-08-12T01:21:17.432Z,5.90
2022-08-12T01:24:49.292Z,4.10
2022-08-12T01:27:53.283Z,4.50
2022-08-12T01:30:57.528Z,3.60
2022-08-12T01:34:04.152Z,4.45
2022-08-12T01:37:09.170Z,4.35
2022-08-12T01:40:33.832Z,3.67
2022-08-12T01:43:34.846Z,4.13
2022-08-12T01:46:42.934Z,4.78
2022-08-12T01:50:09.140Z,4.90
2022-08-12T01:53:20.780Z,3.35
2022-08-12T01:56:25.991Z,3.58
2022-08-12T01:59:59.178Z,4.13
2022-08-12T02:04:07.286Z,3.42
2022-08-12T02:07:36.859Z,3.83
2022-08-12T02:14:38.167Z,3.97
2022-08-12T02:18:12.800Z,3.30
2022-08-12T02:21:38.148Z,3.88
2022-08-12T02:24:44.458Z,3.85
2022-08-12T02:27:49.529Z,3.65
2022-08-12T02:30:51.505Z,3.60
2022-08-12T02:33:54.939Z,2.88
2022-08-12T02:37:02.610Z,3.33
2022-08-12T02:40:07.614Z,3.25
2022-08-12T02:43:51.491Z,3.97
2022-08-12T02:46:56.938Z,3.15
2022-08-12T02:50:02.326Z,3.08
2022-08-12T02:53:05.090Z,3.40
2022-08-12T02:56:07.819Z,3.67
2022-08-12T02:59:16.600Z,3.25
2022-08-12T03:02:24.697Z,3.67
2022-08-12T03:05:26.854Z,4.18
2022-08-12T03:08:39.864Z,3.40
2022-08-12T03:11:50.767Z,4.07
2022-08-12T03:14:55.634Z,3.45
2022-08-12T03:18:25.962Z,2.83
2022-08-12T03:21:55.398Z,3.33
2022-08-12T03:24:58.509Z,2.78
2022-08-12T03:28:00.645Z,3.53
2022-08-12T03:31:08.164Z,3.60
2022-08-12T03:34:14.449Z,3.60
2022-08-12T03:37:20.726Z,3.10
2022-08-12T03:40:46.483Z,2.67
2022-08-12T03:44:48.813Z,3.05
2022-08-12T03:48:39.369Z,3.35
2022-08-12T03:52:00.431Z,2.55
2022-08-12T03:55:22.339Z,3.03
2022-08-12T03:58:44.014Z,2.85
2022-08-12T04:01:52.592Z,3.72
2022-08-12T04:04:55.946Z,4.15
2022-08-12T04:08:00.178Z,3.22
2022-08-12T04:11:20.724Z,3.25
2022-08-12T04:14:22.818Z,2.97
2022-08-12T04:17:28.185Z,2.70
2022-08-12T04:20:30.660Z,3.45
2022-08-12T04:23:33.836Z,3.22
2022-08-12T04:26:36.541Z,3.65
2022-08-12T04:30:31.129Z,3.45
2022-08-12T04:33:02.270Z,4.47
2022-08-12T04:36:04.734Z,2.88
2022-08-12T04:39:09.041Z,3.05
2022-08-12T04:42:11.379Z,3.35
2022-08-12T04:45:13.496Z,3.38
2022-08-12T04:48:24.445Z,3.78
2022-08-12T04:51:27.181Z,3.63
2022-08-12T04:54:29.799Z,2.65
2022-08-12T04:57:31.893Z,3.40
2022-08-12T05:00:34.886Z,3.28
2022-08-12T05:03:46.547Z,3.50
2022-08-12T05:06:49.573Z,3.75
2022-08-12T05:10:00.337Z,4.78
2022-08-12T05:13:09.702Z,4.22
2022-08-12T05:16:11.776Z,4.47
2022-08-12T05:19:18.721Z,3.42
2022-08-12T05:22:26.353Z,4.18
2022-08-12T05:25:28.641Z,4.00
2022-08-12T05:28:30.858Z,4.10
2022-08-12T05:31:42.563Z,3.45
2022-08-12T05:34:50.414Z,3.83
2022-08-12T05:38:15.399Z,3.55
2022-08-12T05:41:20.768Z,3.67
2022-08-12T05:44:22.868Z,3.58
2022-08-12T05:47:24.886Z,4.07
2022-08-12T05:50:47.663Z,3.55
2022-08-12T05:53:49.977Z,3.50
2022-08-12T05:56:52.370Z,4.15
2022-08-12T05:59:55.247Z,4.25
2022-08-12T06:03:03.066Z,3.15
2022-08-12T06:06:07.209Z,3.88
2022-08-12T06:09:11.511Z,5.00
2022-08-12T06:12:18.137Z,3.55
2022-08-12T06:15:20.905Z,4.60
2022-08-12T06:18:27.742Z,5.28
2022-08-12T06:21:31.729Z,4.40
2022-08-12T06:24:33.727Z,3.85
2022-08-12T06:28:06.693Z,4.70
2022-08-12T06:31:26.816Z,3.42
2022-08-12T06:37:57.756Z,4.95
2022-08-12T06:41:19.515Z,4.93
2022-08-12T06:44:22.400Z,4.40
2022-08-12T06:47:24.436Z,4.30
2022-08-12T06:50:27.647Z,5.28
2022-08-12T06:53:33.034Z,4.40
2022-08-12T06:57:02.288Z,4.50
2022-08-12T06:59:57.750Z,4.55
2022-08-12T07:03:16.311Z,4.90
2022-08-12T07:06:25.443Z,4.93
2022-08-12T07:10:03.905Z,4.15
2022-08-12T07:12:55.025Z,4.32
2022-08-12T07:15:58.831Z,4.97
2022-08-12T07:19:00.909Z,4.85
2022-08-12T07:22:06.579Z,5.57
2022-08-12T07:25:27.550Z,5.38
2022-08-12T07:28:33.862Z,5.13
2022-08-12T07:31:39.595Z,5.25
2022-08-12T07:34:42.696Z,4.78
2022-08-12T07:37:44.790Z,5.30
2022-08-12T07:40:46.967Z,5.38
2022-08-12T07:44:02.478Z,5.50
2022-08-12T07:47:08.663Z,5.82
2022-08-12T07:50:22.981Z,4.97
2022-08-12T07:53:25.769Z,5.93
2022-08-12T07:56:28.961Z,5.15
2022-08-12T07:59:34.089Z,5.70
2022-08-12T08:02:37.663Z,5.13
2022-08-12T08:05:49.719Z,6.55
2022-08-12T08:08:51.899Z,6.00
2022-08-12T08:12:19.101Z,5.75
2022-08-12T08:16:02.055Z,5.07
2022-08-12T08:18:59.542Z,4.82
2022-08-12T08:22:01.633Z,5.78
2022-08-12T08:25:03.723Z,3.95
2022-08-12T08:28:22.309Z,6.85
2022-08-12T08:31:24.447Z,5.55
2022-08-12T08:34:34.029Z,6.43
2022-08-12T08:37:49.271Z,5.63
2022-08-12T08:41:10.135Z,5.75
2022-08-12T08:44:12.341Z,5.97
2022-08-12T08:47:14.529Z,5.60
2022-08-12T08:50:16.586Z,5.85
2022-08-12T08:53:19.694Z,5.05
2022-08-12T08:56:22.683Z,6.03
2022-08-12T08:59:24.684Z,6.07
2022-08-12T09:02:26.784Z,5.10
2022-08-12T09:06:01.757Z,4.93
2022-08-12T09:08:53.932Z,6.95
2022-08-12T09:12:14.781Z,5.43
2022-08-12T09:18:53.338Z,6.47
2022-08-12T09:21:57.381Z,5.75
2022-08-12T09:25:06.176Z,6.18
2022-08-12T09:28:11.719Z,6.72
2022-08-12T09:32:02.778Z,5.38
2022-08-12T09:34:42.663Z,5.72
2022-08-12T09:37:55.213Z,5.50
2022-08-12T09:42:33.620Z,5.50
2022-08-12T09:44:42.648Z,5.07
2022-08-12T09:47:46.264Z,5.43
2022-08-12T09:51:01.705Z,4.60
2022-08-12T09:54:08.367Z,5.22
2022-08-12T09:58:45.013Z,4.70
2022-08-12T10:00:52.258Z,6.28
2022-08-12T10:04:03.907Z,5.90
2022-08-12T10:07:06.919Z,5.60
2022-08-12T10:10:25.063Z,4.95
2022-08-12T10:13:42.069Z,4.38
2022-08-12T10:16:44.622Z,5.70
2022-08-12T10:19:51.970Z,5.80
2022-08-12T10:23:01.893Z,7.22
2022-08-12T10:26:36.911Z,6.05
2022-08-12T10:30:40.710Z,4.90
2022-08-12T10:33:18.120Z,4.95
2022-08-12T10:36:20.908Z,6.50
2022-08-12T10:40:02.268Z,4.63
2022-08-12T10:43:20.610Z,5.47
2022-08-12T10:46:24.161Z,5.75
2022-08-12T10:50:02.280Z,6.88
2022-08-12T10:52:57.017Z,5.63
2022-08-12T10:55:59.716Z,7.28
2022-08-12T10:59:10.457Z,8.65
2022-08-12T11:04:24.119Z,6.05
2022-08-12T11:07:09.187Z,4.25
2022-08-12T11:09:01.652Z,7.03
2022-08-12T11:12:54.696Z,5.32
2022-08-12T11:16:18.844Z,6.25
2022-08-12T11:18:56.224Z,5.75
2022-08-12T11:22:01.114Z,5.30
2022-08-12T11:25:10.414Z,6.30
2022-08-12T11:28:14.348Z,5.68
2022-08-12T11:31:16.660Z,5.95
2022-08-12T11:34:53.264Z,7.32
2022-08-12T11:37:59.339Z,6.40
2022-08-12T11:41:05.171Z,6.47
2022-08-12T11:44:29.180Z,5.97
2022-08-12T11:47:30.252Z,6.68
2022-08-12T11:50:32.874Z,6.68
2022-08-12T11:53:58.129Z,7.43
2022-08-12T11:57:02.342Z,6.97
2022-08-12T12:03:43.982Z,6.47
2022-08-12T12:06:53.010Z,7.53
2022-08-12T12:09:55.717Z,6.18
2022-08-12T12:12:57.976Z,5.95
2022-08-12T12:16:00.164Z,6.38
2022-08-12T12:19:02.552Z,6.82
2022-08-12T12:22:04.712Z,5.03
2022-08-12T12:25:12.768Z,6.45
2022-08-12T12:28:36.638Z,6.35
2022-08-12T12:32:09.413Z,5.97
2022-08-12T12:36:05.591Z,6.63
2022-08-12T12:38:25.260Z,5.40
2022-08-12T12:42:42.141Z,5.22
2022-08-12T12:44:50.965Z,6.18
2022-08-12T12:47:59.788Z,5.47
2022-08-12T12:51:49.451Z,5.60
2022-08-12T12:54:52.975Z,6.93
2022-08-12T12:57:59.375Z,6.47
2022-08-12T13:01:04.648Z,5.73
2022-08-12T13:04:12.249Z,6.25
2022-08-12T13:07:16.427Z,5.57
2022-08-12T13:10:30.525Z,5.88
2022-08-12T13:14:09.786Z,6.07
2022-08-12T13:17:03.211Z,5.93
2022-08-12T13:20:06.423Z,6.65
2022-08-12T13:23:35.971Z,6.45
2022-08-12T13:26:43.882Z,5.65
2022-08-12T13:30:26.564Z,6.07
2022-08-12T13:34:32.052Z,6.18
2022-08-12T13:36:52.588Z,6.00
2022-08-12T13:39:54.979Z,6.47
2022-08-12T13:42:58.151Z,7.28
2022-08-12T13:46:01.462Z,5.63
2022-08-12T13:49:04.947Z,5.03
2022-08-12T13:52:07.010Z,5.85
2022-08-12T13:55:09.180Z,6.18
2022-08-12T13:58:21.067Z,6.38
2022-08-12T14:01:23.260Z,5.43
2022-08-12T14:04:25.365Z,5.32
2022-08-12T14:07:45.989Z,6.18
2022-08-12T14:11:16.807Z,6.20
2022-08-12T14:14:39.613Z,5.78
2022-08-12T14:18:27.108Z,5.43
2022-08-12T14:21:30.067Z,6.53
2022-08-12T14:24:52.527Z,6.05
2022-08-12T14:28:04.516Z,5.07
2022-08-12T14:35:09.925Z,6.20
2022-08-12T14:38:26.424Z,5.78
2022-08-12T14:41:37.034Z,7.25
2022-08-12T14:44:59.690Z,6.78
2022-08-12T14:48:06.933Z,6.53
2022-08-12T14:52:43.339Z,6.55
2022-08-12T14:58:02.972Z,7.15
2022-08-12T15:01:24.022Z,6.78
2022-08-12T15:07:53.429Z,6.32
2022-08-12T15:11:04.815Z,6.35
2022-08-12T15:14:11.950Z,6.35
2022-08-12T15:17:37.225Z,5.20
2022-08-12T15:20:54.543Z,6.53
2022-08-12T15:27:03.774Z,5.53
2022-08-12T15:30:11.524Z,5.15
2022-08-12T15:33:18.943Z,5.85
2022-08-12T15:36:54.694Z,6.47
2022-08-12T15:40:00.738Z,6.32
2022-08-12T15:43:51.808Z,6.03
2022-08-12T15:46:55.043Z,6.90
2022-08-12T15:50:00.897Z,6.47
2022-08-12T15:53:17.135Z,5.70
2022-08-12T15:56:30.015Z,5.63
2022-08-12T15:59:51.159Z,5.63
2022-08-12T16:02:58.759Z,5.10
2022-08-12T16:06:19.086Z,5.47
2022-08-12T16:09:56.239Z,5.78
2022-08-12T16:12:57.544Z,4.85
2022-08-12T16:16:03.831Z,6.20
2022-08-12T16:19:09.575Z,4.63
2022-08-12T16:26:00.147Z,5.97
2022-08-12T16:28:56.190Z,5.57
2022-08-12T16:31:59.742Z,4.60
2022-08-12T16:35:08.243Z,5.13
2022-08-12T16:38:28.277Z,4.90
2022-08-12T16:41:38.173Z,4.47
2022-08-12T16:44:46.086Z,5.53
2022-08-12T16:47:58.127Z,4.65
2022-08-12T16:51:12.633Z,5.55
2022-08-12T16:54:17.251Z,5.55
2022-08-12T16:57:20.127Z,4.95
2022-08-12T17:00:41.044Z,4.60
2022-08-12T17:04:09.144Z,5.18
2022-08-12T17:07:19.676Z,5.28
2022-08-12T17:10:36.637Z,4.35
2022-08-12T17:13:52.961Z,5.97
2022-08-12T17:16:56.947Z,4.68
2022-08-12T17:20:35.488Z,5.05
2022-08-12T17:23:47.961Z,4.78
2022-08-12T17:26:53.987Z,4.35
2022-08-12T17:30:00.598Z,5.47
2022-08-12T17:33:07.658Z,5.05
2022-08-12T17:36:10.736Z,5.88
2022-08-12T17:39:13.050Z,5.25
2022-08-12T17:42:34.684Z,4.68
2022-08-12T17:45:42.375Z,5.25
2022-08-12T17:48:54.832Z,4.97
2022-08-12T17:52:02.740Z,5.28
2022-08-12T17:55:39.972Z,5.68
2022-08-12T17:58:38.043Z,6.32
2022-08-12T18:01:46.333Z,5.50
2022-08-12T18:05:05.001Z,5.40
2022-08-12T18:08:12.864Z,5.30
2022-08-12T18:12:06.541Z,4.93
2022-08-12T18:15:09.159Z,4.78
2022-08-12T18:18:17.126Z,5.43
2022-08-12T18:21:21.490Z,5.35
2022-08-12T18:24:29.474Z,5.30
2022-08-12T18:27:44.033Z,5.93
2022-08-12T18:30:52.860Z,5.35
2022-08-12T18:34:01.534Z,5.40
2022-08-12T18:37:26.761Z,5.93
2022-08-12T18:40:48.521Z,5.55
2022-08-12T18:44:07.756Z,5.22
2022-08-12T18:47:14.620Z,5.40
2022-08-12T18:50:17.894Z,6.03
2022-08-12T18:54:07.374Z,5.90
2022-08-12T18:56:43.226Z,5.47
2022-08-12T19:00:01.054Z,5.60
2022-08-12T19:03:23.588Z,5.82
2022-08-12T19:06:36.065Z,4.50
2022-08-12T19:09:58.361Z,5.60
2022-08-12T19:13:23.682Z,5.70
2022-08-12T19:16:27.188Z,6.25
2022-08-12T19:19:37.439Z,5.65
2022-08-12T19:22:59.706Z,5.97
2022-08-12T19:26:10.838Z,5.13
2022-08-12T19:29:18.397Z,6.35
2022-08-12T19:32:23.680Z,5.15
2022-08-12T19:36:06.586Z,5.78
2022-08-12T19:38:56.716Z,6.05
2022-08-12T19:42:01.270Z,5.53
2022-08-12T19:45:05.953Z,5.82
2022-08-12T19:48:18.001Z,5.15
2022-08-12T19:51:38.458Z,5.25
2022-08-12T19:54:43.931Z,5.28
2022-08-12T19:58:01.324Z,4.88
2022-08-12T20:01:11.007Z,5.32
2022-08-12T20:04:14.187Z,6.20
2022-08-12T20:07:23.877Z,5.53
2022-08-12T20:10:35.590Z,5.10
2022-08-12T20:13:39.111Z,5.20
2022-08-12T20:16:52.338Z,4.97
2022-08-12T20:20:17.049Z,5.93
2022-08-12T20:23:23.867Z,5.45
2022-08-12T20:26:43.419Z,5.28
2022-08-12T20:29:46.387Z,5.72
2022-08-12T20:32:56.120Z,4.97
2022-08-12T20:36:06.642Z,4.80
2022-08-12T20:39:52.371Z,4.45
2022-08-12T20:42:45.895Z,4.90
2022-08-12T20:45:57.398Z,5.03
2022-08-12T20:49:14.287Z,4.53
2022-08-12T20:52:19.928Z,4.28
2022-08-12T20:55:22.437Z,4.80
2022-08-12T20:58:44.567Z,3.95
2022-08-12T21:01:49.156Z,3.90
2022-08-12T21:05:19.599Z,4.45
2022-08-12T21:08:26.739Z,4.78
2022-08-12T21:11:28.866Z,4.47
2022-08-12T21:14:39.708Z,3.78
2022-08-12T21:18:11.069Z,4.78
2022-08-12T21:21:46.909Z,4.60
2022-08-12T21:24:50.546Z,4.90
2022-08-12T21:27:59.553Z,4.88
2022-08-12T21:32:35.440Z,3.75
2022-08-12T21:34:29.108Z,5.45
2022-08-12T21:37:37.523Z,4.70
2022-08-12T21:40:52.124Z,4.18
2022-08-12T21:44:00.876Z,5.80
2022-08-12T21:47:21.699Z,5.30
2022-08-12T21:50:25.994Z,4.88
2022-08-12T21:54:07.646Z,4.53
2022-08-12T21:56:53.970Z,4.65
2022-08-12T21:59:56.287Z,5.53
2022-08-12T22:03:17.502Z,4.90
2022-08-12T22:06:43.181Z,5.22
2022-08-12T22:09:46.713Z,4.32
2022-08-12T22:13:01.083Z,5.13
2022-08-12T22:16:03.989Z,4.60
2022-08-12T22:19:06.813Z,4.78
2022-08-12T22:22:08.967Z,5.97
2022-08-12T22:25:16.863Z,4.82
2022-08-12T22:28:40.776Z,4.70
2022-08-12T22:31:43.024Z,4.18
2022-08-12T22:34:46.294Z,5.13
2022-08-12T22:37:48.798Z,5.63
2022-08-12T22:41:00.985Z,5.18
2022-08-12T22:44:22.855Z,5.65
2022-08-12T22:47:53.391Z,5.18
2022-08-12T22:50:59.363Z,5.57
2022-08-12T22:54:01.576Z,5.18
2022-08-12T22:57:05.059Z,5.15
2022-08-12T23:00:24.336Z,5.85
2022-08-12T23:03:48.859Z,5.88
2022-08-12T23:06:55.525Z,5.93
2022-08-12T23:09:57.748Z,5.53
2022-08-12T23:13:18.777Z,4.85
2022-08-12T23:16:29.213Z,4.68
2022-08-12T23:19:38.203Z,4.85
2022-08-12T23:22:40.727Z,5.45
2022-08-12T23:25:55.325Z,5.47
2022-08-12T23:29:29.713Z,5.18
2022-08-12T23:32:38.470Z,6.13
2022-08-12T23:35:45.588Z,4.97
2022-08-12T23:39:01.637Z,5.45
2022-08-12T23:42:17.536Z,6.95
2022-08-12T23:45:32.009Z,5.45
2022-08-12T23:48:37.911Z,5.38
2022-08-12T23:51:40.440Z,5.63
2022-08-12T23:54:58.220Z,5.43
2022-08-12T23:58:20.849Z,4.85
